sensor_id;sensor_type;location;lat;lon;timestamp;temperature;humidity
65989;HTU21D;53592;51.402;6.054;2023-08-01T00:00:29;19.00;85.22
65989;HTU21D;53592;51.402;6.054;2023-08-01T00:02:54;19.01;85.06
65989;HTU21D;53592;51.402;6.054;2023-08-01T00:05:20;18.97;85.16
65989;HTU21D;53592;51.402;6.054;2023-08-01T00:07:45;18.92;85.41
65989;HTU21D;53592;51.402;6.054;2023-08-01T00:10:11;18.87;85.67
65989;HTU21D;53592;51.402;6.054;2023-08-01T00:12:36;18.88;85.76
65989;HTU21D;53592;51.402;6.054;2023-08-01T00:15:03;18.88;85.88
65989;HTU21D;53592;51.402;6.054;2023-08-01T00:17:29;18.89;85.87
65989;HTU21D;53592;51.402;6.054;2023-08-01T00:19:54;18.92;85.93
65989;HTU21D;53592;51.402;6.054;2023-08-01T00:22:20;18.93;85.84
65989;HTU21D;53592;51.402;6.054;2023-08-01T00:24:46;18.93;85.85
65989;HTU21D;53592;51.402;6.054;2023-08-01T00:27:13;18.92;85.82
65989;HTU21D;53592;51.402;6.054;2023-08-01T00:29:39;18.92;85.97
65989;HTU21D;53592;51.402;6.054;2023-08-01T00:32:04;18.93;86.00
65989;HTU21D;53592;51.402;6.054;2023-08-01T00:34:30;18.92;86.04
65989;HTU21D;53592;51.402;6.054;2023-08-01T00:36:56;18.94;86.01
65989;HTU21D;53592;51.402;6.054;2023-08-01T00:39:22;18.92;86.08
65989;HTU21D;53592;51.402;6.054;2023-08-01T00:41:47;18.93;86.22
65989;HTU21D;53592;51.402;6.054;2023-08-01T00:44:13;18.93;85.97
65989;HTU21D;53592;51.402;6.054;2023-08-01T00:46:38;18.85;85.92
65989;HTU21D;53592;51.402;6.054;2023-08-01T00:49:04;18.77;85.92
65989;HTU21D;53592;51.402;6.054;2023-08-01T00:51:31;18.67;86.17
65989;HTU21D;53592;51.402;6.054;2023-08-01T00:53:57;18.61;86.22
65989;HTU21D;53592;51.402;6.054;2023-08-01T00:56:23;18.53;86.56
65989;HTU21D;53592;51.402;6.054;2023-08-01T00:58:49;18.52;86.69
65989;HTU21D;53592;51.402;6.054;2023-08-01T01:01:14;18.52;86.78
65989;HTU21D;53592;51.402;6.054;2023-08-01T01:03:40;18.51;86.79
65989;HTU21D;53592;51.402;6.054;2023-08-01T01:06:24;18.52;86.80
65989;HTU21D;53592;51.402;6.054;2023-08-01T01:08:50;18.52;86.84
65989;HTU21D;53592;51.402;6.054;2023-08-01T01:11:15;18.54;86.81
65989;HTU21D;53592;51.402;6.054;2023-08-01T01:13:41;18.56;86.70
65989;HTU21D;53592;51.402;6.054;2023-08-01T01:16:06;18.55;86.54
65989;HTU21D;53592;51.402;6.054;2023-08-01T01:18:32;18.55;86.44
65989;HTU21D;53592;51.402;6.054;2023-08-01T01:20:57;18.53;86.43
65989;HTU21D;53592;51.402;6.054;2023-08-01T01:23:24;18.52;86.51
65989;HTU21D;53592;51.402;6.054;2023-08-01T01:25:51;18.50;86.48
65989;HTU21D;53592;51.402;6.054;2023-08-01T01:28:19;18.49;86.49
65989;HTU21D;53592;51.402;6.054;2023-08-01T01:30:46;18.49;86.38
65989;HTU21D;53592;51.402;6.054;2023-08-01T01:33:13;18.48;86.41
65989;HTU21D;53592;51.402;6.054;2023-08-01T01:35:40;18.44;86.22
65989;HTU21D;53592;51.402;6.054;2023-08-01T01:38:06;18.40;86.25
65989;HTU21D;53592;51.402;6.054;2023-08-01T01:40:32;18.38;86.29
65989;HTU21D;53592;51.402;6.054;2023-08-01T01:42:59;18.33;86.37
65989;HTU21D;53592;51.402;6.054;2023-08-01T01:45:24;18.35;85.99
65989;HTU21D;53592;51.402;6.054;2023-08-01T01:47:50;18.27;86.14
65989;HTU21D;53592;51.402;6.054;2023-08-01T01:50:15;18.22;86.03
65989;HTU21D;53592;51.402;6.054;2023-08-01T01:52:41;18.18;85.87
65989;HTU21D;53592;51.402;6.054;2023-08-01T01:55:07;18.14;85.96
65989;HTU21D;53592;51.402;6.054;2023-08-01T01:57:32;18.11;85.84
65989;HTU21D;53592;51.402;6.054;2023-08-01T01:59:58;18.06;85.79
65989;HTU21D;53592;51.402;6.054;2023-08-01T02:02:23;18.04;85.76
65989;HTU21D;53592;51.402;6.054;2023-08-01T02:04:50;18.04;85.78
65989;HTU21D;53592;51.402;6.054;2023-08-01T02:07:15;18.06;85.67
65989;HTU21D;53592;51.402;6.054;2023-08-01T02:09:41;18.03;85.55
65989;HTU21D;53592;51.402;6.054;2023-08-01T02:12:07;18.00;85.66
65989;HTU21D;53592;51.402;6.054;2023-08-01T02:14:35;17.97;85.71
65989;HTU21D;53592;51.402;6.054;2023-08-01T02:17:00;17.91;85.74
65989;HTU21D;53592;51.402;6.054;2023-08-01T02:19:26;17.89;86.12
65989;HTU21D;53592;51.402;6.054;2023-08-01T02:21:51;17.80;85.93
65989;HTU21D;53592;51.402;6.054;2023-08-01T02:24:17;17.74;86.05
65989;HTU21D;53592;51.402;6.054;2023-08-01T02:26:43;17.69;86.35
65989;HTU21D;53592;51.402;6.054;2023-08-01T02:29:09;17.69;86.21
65989;HTU21D;53592;51.402;6.054;2023-08-01T02:31:34;17.66;86.29
65989;HTU21D;53592;51.402;6.054;2023-08-01T02:34:00;17.66;86.33
65989;HTU21D;53592;51.402;6.054;2023-08-01T02:36:26;17.65;86.21
65989;HTU21D;53592;51.402;6.054;2023-08-01T02:38:51;17.63;86.12
65989;HTU21D;53592;51.402;6.054;2023-08-01T02:41:17;17.61;86.19
65989;HTU21D;53592;51.402;6.054;2023-08-01T02:43:42;17.60;86.24
65989;HTU21D;53592;51.402;6.054;2023-08-01T02:46:08;17.61;86.23
65989;HTU21D;53592;51.402;6.054;2023-08-01T02:48:33;17.61;86.12
65989;HTU21D;53592;51.402;6.054;2023-08-01T02:51:01;17.61;86.08
65989;HTU21D;53592;51.402;6.054;2023-08-01T02:53:29;17.59;86.00
65989;HTU21D;53592;51.402;6.054;2023-08-01T02:55:54;17.58;85.96
65989;HTU21D;53592;51.402;6.054;2023-08-01T02:58:20;17.56;85.77
65989;HTU21D;53592;51.402;6.054;2023-08-01T03:00:45;17.51;85.65
65989;HTU21D;53592;51.402;6.054;2023-08-01T03:03:13;17.46;85.68
65989;HTU21D;53592;51.402;6.054;2023-08-01T03:05:38;17.43;85.85
65989;HTU21D;53592;51.402;6.054;2023-08-01T03:08:04;17.39;85.86
65989;HTU21D;53592;51.402;6.054;2023-08-01T03:10:33;17.35;85.80
65989;HTU21D;53592;51.402;6.054;2023-08-01T03:12:58;17.34;85.91
65989;HTU21D;53592;51.402;6.054;2023-08-01T03:15:24;17.33;86.03
65989;HTU21D;53592;51.402;6.054;2023-08-01T03:17:49;17.34;85.86
65989;HTU21D;53592;51.402;6.054;2023-08-01T03:20:15;17.32;85.94
65989;HTU21D;53592;51.402;6.054;2023-08-01T03:22:40;17.30;86.00
65989;HTU21D;53592;51.402;6.054;2023-08-01T03:25:08;17.24;86.10
65989;HTU21D;53592;51.402;6.054;2023-08-01T03:27:35;17.24;86.16
65989;HTU21D;53592;51.402;6.054;2023-08-01T03:30:01;17.23;86.25
65989;HTU21D;53592;51.402;6.054;2023-08-01T03:32:26;17.22;86.21
65989;HTU21D;53592;51.402;6.054;2023-08-01T03:34:52;17.22;86.25
65989;HTU21D;53592;51.402;6.054;2023-08-01T03:37:18;17.19;86.50
65989;HTU21D;53592;51.402;6.054;2023-08-01T03:39:44;17.19;86.60
65989;HTU21D;53592;51.402;6.054;2023-08-01T03:42:12;17.18;86.65
65989;HTU21D;53592;51.402;6.054;2023-08-01T03:44:38;17.19;86.68
65989;HTU21D;53592;51.402;6.054;2023-08-01T03:47:03;17.20;86.51
65989;HTU21D;53592;51.402;6.054;2023-08-01T03:49:32;17.17;86.83
65989;HTU21D;53592;51.402;6.054;2023-08-01T03:51:57;17.16;86.84
65989;HTU21D;53592;51.402;6.054;2023-08-01T03:54:23;17.17;86.86
65989;HTU21D;53592;51.402;6.054;2023-08-01T03:56:49;17.21;86.79
65989;HTU21D;53592;51.402;6.054;2023-08-01T03:59:18;17.20;86.72
65989;HTU21D;53592;51.402;6.054;2023-08-01T04:01:43;17.19;86.64
65989;HTU21D;53592;51.402;6.054;2023-08-01T04:04:10;17.19;86.86
65989;HTU21D;53592;51.402;6.054;2023-08-01T04:06:35;17.19;86.67
65989;HTU21D;53592;51.402;6.054;2023-08-01T04:09:01;17.21;86.80
65989;HTU21D;53592;51.402;6.054;2023-08-01T04:11:27;17.23;86.67
65989;HTU21D;53592;51.402;6.054;2023-08-01T04:13:52;17.22;86.70
65989;HTU21D;53592;51.402;6.054;2023-08-01T04:16:20;17.20;86.75
65989;HTU21D;53592;51.402;6.054;2023-08-01T04:18:45;17.20;86.76
65989;HTU21D;53592;51.402;6.054;2023-08-01T04:21:14;17.21;86.71
65989;HTU21D;53592;51.402;6.054;2023-08-01T04:23:40;17.18;86.75
65989;HTU21D;53592;51.402;6.054;2023-08-01T04:26:05;17.21;86.89
65989;HTU21D;53592;51.402;6.054;2023-08-01T04:28:32;17.24;86.80
65989;HTU21D;53592;51.402;6.054;2023-08-01T04:30:57;17.25;86.64
65989;HTU21D;53592;51.402;6.054;2023-08-01T04:33:25;17.25;86.55
65989;HTU21D;53592;51.402;6.054;2023-08-01T04:35:51;17.26;86.25
65989;HTU21D;53592;51.402;6.054;2023-08-01T04:38:17;17.22;86.13
65989;HTU21D;53592;51.402;6.054;2023-08-01T04:40:43;17.21;86.39
65989;HTU21D;53592;51.402;6.054;2023-08-01T04:43:09;17.17;86.35
65989;HTU21D;53592;51.402;6.054;2023-08-01T04:45:35;17.13;86.47
65989;HTU21D;53592;51.402;6.054;2023-08-01T04:48:01;17.15;86.38
65989;HTU21D;53592;51.402;6.054;2023-08-01T04:50:26;17.13;86.51
65989;HTU21D;53592;51.402;6.054;2023-08-01T04:52:52;17.10;86.68
65989;HTU21D;53592;51.402;6.054;2023-08-01T04:55:17;17.15;86.67
65989;HTU21D;53592;51.402;6.054;2023-08-01T04:57:43;17.16;86.56
65989;HTU21D;53592;51.402;6.054;2023-08-01T05:00:11;17.15;86.69
65989;HTU21D;53592;51.402;6.054;2023-08-01T05:02:37;17.18;86.67
65989;HTU21D;53592;51.402;6.054;2023-08-01T05:05:02;17.19;86.64
65989;HTU21D;53592;51.402;6.054;2023-08-01T05:07:29;17.21;86.65
65989;HTU21D;53592;51.402;6.054;2023-08-01T05:09:55;17.25;86.68
65989;HTU21D;53592;51.402;6.054;2023-08-01T05:12:23;17.29;86.54
65989;HTU21D;53592;51.402;6.054;2023-08-01T05:14:49;17.29;86.58
65989;HTU21D;53592;51.402;6.054;2023-08-01T05:17:14;17.31;86.54
65989;HTU21D;53592;51.402;6.054;2023-08-01T05:19:40;17.35;86.51
65989;HTU21D;53592;51.402;6.054;2023-08-01T05:22:05;17.38;86.40
65989;HTU21D;53592;51.402;6.054;2023-08-01T05:24:31;17.39;86.33
65989;HTU21D;53592;51.402;6.054;2023-08-01T05:26:57;17.44;86.12
65989;HTU21D;53592;51.402;6.054;2023-08-01T05:29:24;17.40;86.10
65989;HTU21D;53592;51.402;6.054;2023-08-01T05:31:50;17.40;86.22
65989;HTU21D;53592;51.402;6.054;2023-08-01T05:34:15;17.43;86.12
65989;HTU21D;53592;51.402;6.054;2023-08-01T05:36:41;17.44;86.11
65989;HTU21D;53592;51.402;6.054;2023-08-01T05:39:07;17.45;86.12
65989;HTU21D;53592;51.402;6.054;2023-08-01T05:41:32;17.47;86.08
65989;HTU21D;53592;51.402;6.054;2023-08-01T05:43:58;17.49;85.87
65989;HTU21D;53592;51.402;6.054;2023-08-01T05:46:24;17.49;85.87
65989;HTU21D;53592;51.402;6.054;2023-08-01T05:48:52;17.50;85.78
65989;HTU21D;53592;51.402;6.054;2023-08-01T05:51:18;17.52;85.78
65989;HTU21D;53592;51.402;6.054;2023-08-01T05:57:07;17.56;85.52
65989;HTU21D;53592;51.402;6.054;2023-08-01T05:59:33;17.59;85.61
65989;HTU21D;53592;51.402;6.054;2023-08-01T06:01:58;17.66;85.55
65989;HTU21D;53592;51.402;6.054;2023-08-01T06:04:24;17.69;85.49
65989;HTU21D;53592;51.402;6.054;2023-08-01T06:06:49;17.72;85.27
65989;HTU21D;53592;51.402;6.054;2023-08-01T06:09:15;17.69;85.22
65989;HTU21D;53592;51.402;6.054;2023-08-01T06:11:41;17.72;85.29
65989;HTU21D;53592;51.402;6.054;2023-08-01T06:14:06;17.77;85.43
65989;HTU21D;53592;51.402;6.054;2023-08-01T06:16:32;17.83;85.58
65989;HTU21D;53592;51.402;6.054;2023-08-01T06:18:58;17.92;85.42
65989;HTU21D;53592;51.402;6.054;2023-08-01T06:21:27;17.99;85.03
65989;HTU21D;53592;51.402;6.054;2023-08-01T06:23:52;18.04;84.26
65989;HTU21D;53592;51.402;6.054;2023-08-01T06:26:18;18.07;83.80
65989;HTU21D;53592;51.402;6.054;2023-08-01T06:28:43;18.11;83.73
65989;HTU21D;53592;51.402;6.054;2023-08-01T06:31:09;18.13;83.61
65989;HTU21D;53592;51.402;6.054;2023-08-01T06:33:34;18.19;83.45
65989;HTU21D;53592;51.402;6.054;2023-08-01T06:36:00;18.21;83.49
65989;HTU21D;53592;51.402;6.054;2023-08-01T06:38:25;18.38;84.00
65989;HTU21D;53592;51.402;6.054;2023-08-01T06:40:51;18.56;83.39
65989;HTU21D;53592;51.402;6.054;2023-08-01T06:43:16;18.70;82.80
65989;HTU21D;53592;51.402;6.054;2023-08-01T06:45:41;18.79;81.94
65989;HTU21D;53592;51.402;6.054;2023-08-01T06:48:08;18.83;81.90
65989;HTU21D;53592;51.402;6.054;2023-08-01T06:50:34;18.93;81.56
65989;HTU21D;53592;51.402;6.054;2023-08-01T06:53:00;19.06;80.98
65989;HTU21D;53592;51.402;6.054;2023-08-01T06:55:26;19.13;80.52
65989;HTU21D;53592;51.402;6.054;2023-08-01T06:57:52;19.21;80.59
65989;HTU21D;53592;51.402;6.054;2023-08-01T07:00:17;19.30;80.30
65989;HTU21D;53592;51.402;6.054;2023-08-01T07:02:43;19.39;79.81
65989;HTU21D;53592;51.402;6.054;2023-08-01T07:05:08;19.40;79.54
65989;HTU21D;53592;51.402;6.054;2023-08-01T07:07:34;19.45;79.03
65989;HTU21D;53592;51.402;6.054;2023-08-01T07:09:59;19.42;78.55
65989;HTU21D;53592;51.402;6.054;2023-08-01T07:12:25;19.36;78.08
65989;HTU21D;53592;51.402;6.054;2023-08-01T07:14:51;19.31;78.33
65989;HTU21D;53592;51.402;6.054;2023-08-01T07:17:16;19.23;78.47
65989;HTU21D;53592;51.402;6.054;2023-08-01T07:19:42;19.14;78.50
65989;HTU21D;53592;51.402;6.054;2023-08-01T07:22:07;19.11;78.91
65989;HTU21D;53592;51.402;6.054;2023-08-01T07:24:33;19.12;79.05
65989;HTU21D;53592;51.402;6.054;2023-08-01T07:26:58;19.07;78.90
65989;HTU21D;53592;51.402;6.054;2023-08-01T07:29:24;19.01;79.08
65989;HTU21D;53592;51.402;6.054;2023-08-01T07:31:52;18.97;79.16
65989;HTU21D;53592;51.402;6.054;2023-08-01T07:34:17;18.97;79.50
65989;HTU21D;53592;51.402;6.054;2023-08-01T07:36:43;19.03;79.39
65989;HTU21D;53592;51.402;6.054;2023-08-01T07:39:09;19.03;79.56
65989;HTU21D;53592;51.402;6.054;2023-08-01T07:41:34;19.11;79.74
65989;HTU21D;53592;51.402;6.054;2023-08-01T07:44:03;19.21;79.68
65989;HTU21D;53592;51.402;6.054;2023-08-01T07:46:28;19.26;79.21
65989;HTU21D;53592;51.402;6.054;2023-08-01T07:48:54;19.32;79.08
65989;HTU21D;53592;51.402;6.054;2023-08-01T07:51:20;19.38;78.73
65989;HTU21D;53592;51.402;6.054;2023-08-01T07:53:45;19.38;78.32
65989;HTU21D;53592;51.402;6.054;2023-08-01T07:56:11;19.31;78.22
65989;HTU21D;53592;51.402;6.054;2023-08-01T07:58:39;19.33;78.40
65989;HTU21D;53592;51.402;6.054;2023-08-01T08:01:05;19.31;78.55
65989;HTU21D;53592;51.402;6.054;2023-08-01T08:03:31;19.32;78.31
65989;HTU21D;53592;51.402;6.054;2023-08-01T08:05:57;19.29;78.16
65989;HTU21D;53592;51.402;6.054;2023-08-01T08:08:26;19.27;78.25
65989;HTU21D;53592;51.402;6.054;2023-08-01T08:10:52;19.44;78.69
65989;HTU21D;53592;51.402;6.054;2023-08-01T08:13:17;19.75;78.69
65989;HTU21D;53592;51.402;6.054;2023-08-01T08:15:43;20.07;77.24
65989;HTU21D;53592;51.402;6.054;2023-08-01T08:18:08;20.32;75.85
65989;HTU21D;53592;51.402;6.054;2023-08-01T08:20:44;20.46;74.81
65989;HTU21D;53592;51.402;6.054;2023-08-01T08:23:11;20.48;73.40
65989;HTU21D;53592;51.402;6.054;2023-08-01T08:25:40;20.48;73.98
65989;HTU21D;53592;51.402;6.054;2023-08-01T08:28:05;20.57;73.48
65989;HTU21D;53592;51.402;6.054;2023-08-01T08:30:31;20.65;73.19
65989;HTU21D;53592;51.402;6.054;2023-08-01T08:32:59;20.70;72.66
65989;HTU21D;53592;51.402;6.054;2023-08-01T08:35:30;20.73;72.41
65989;HTU21D;53592;51.402;6.054;2023-08-01T08:37:55;20.81;72.52
65989;HTU21D;53592;51.402;6.054;2023-08-01T08:40:21;21.07;72.14
65989;HTU21D;53592;51.402;6.054;2023-08-01T08:42:48;21.32;71.00
65989;HTU21D;53592;51.402;6.054;2023-08-01T08:45:19;21.51;70.65
65989;HTU21D;53592;51.402;6.054;2023-08-01T08:47:53;21.75;69.91
65989;HTU21D;53592;51.402;6.054;2023-08-01T08:50:20;21.97;69.03
65989;HTU21D;53592;51.402;6.054;2023-08-01T08:52:46;22.16;69.04
65989;HTU21D;53592;51.402;6.054;2023-08-01T08:55:12;22.28;67.36
65989;HTU21D;53592;51.402;6.054;2023-08-01T08:57:38;22.25;66.87
65989;HTU21D;53592;51.402;6.054;2023-08-01T09:00:05;22.18;66.81
65989;HTU21D;53592;51.402;6.054;2023-08-01T09:02:32;22.22;66.93
65989;HTU21D;53592;51.402;6.054;2023-08-01T09:04:58;22.29;66.46
65989;HTU21D;53592;51.402;6.054;2023-08-01T09:07:29;22.31;66.29
65989;HTU21D;53592;51.402;6.054;2023-08-01T09:09:55;22.28;66.73
65989;HTU21D;53592;51.402;6.054;2023-08-01T09:12:21;22.36;66.86
65989;HTU21D;53592;51.402;6.054;2023-08-01T09:14:50;22.42;66.98
65989;HTU21D;53592;51.402;6.054;2023-08-01T09:17:16;22.43;66.45
65989;HTU21D;53592;51.402;6.054;2023-08-01T09:19:43;22.41;66.98
65989;HTU21D;53592;51.402;6.054;2023-08-01T09:22:13;22.49;66.54
65989;HTU21D;53592;51.402;6.054;2023-08-01T09:24:49;22.48;66.02
65989;HTU21D;53592;51.402;6.054;2023-08-01T09:27:15;22.53;65.21
65989;HTU21D;53592;51.402;6.054;2023-08-01T09:29:40;22.60;64.92
65989;HTU21D;53592;51.402;6.054;2023-08-01T09:32:13;22.76;64.64
65989;HTU21D;53592;51.402;6.054;2023-08-01T09:34:42;22.85;64.01
65989;HTU21D;53592;51.402;6.054;2023-08-01T09:37:08;22.77;63.36
65989;HTU21D;53592;51.402;6.054;2023-08-01T09:39:34;22.77;63.11
65989;HTU21D;53592;51.402;6.054;2023-08-01T09:42:01;22.68;63.22
65989;HTU21D;53592;51.402;6.054;2023-08-01T09:44:29;22.68;64.14
65989;HTU21D;53592;51.402;6.054;2023-08-01T09:46:59;22.70;63.85
65989;HTU21D;53592;51.402;6.054;2023-08-01T09:49:25;22.65;63.77
65989;HTU21D;53592;51.402;6.054;2023-08-01T09:51:51;22.65;63.86
65989;HTU21D;53592;51.402;6.054;2023-08-01T09:54:17;22.54;63.73
65989;HTU21D;53592;51.402;6.054;2023-08-01T09:56:47;22.41;63.90
65989;HTU21D;53592;51.402;6.054;2023-08-01T09:59:25;22.34;64.45
65989;HTU21D;53592;51.402;6.054;2023-08-01T10:01:54;22.33;64.29
65989;HTU21D;53592;51.402;6.054;2023-08-01T10:04:26;22.32;63.98
65989;HTU21D;53592;51.402;6.054;2023-08-01T10:07:00;22.20;64.12
65989;HTU21D;53592;51.402;6.054;2023-08-01T10:09:30;22.19;64.28
65989;HTU21D;53592;51.402;6.054;2023-08-01T10:11:57;22.28;64.36
65989;HTU21D;53592;51.402;6.054;2023-08-01T10:14:25;22.43;63.74
65989;HTU21D;53592;51.402;6.054;2023-08-01T10:16:52;22.46;63.04
65989;HTU21D;53592;51.402;6.054;2023-08-01T10:19:17;22.42;63.85
65989;HTU21D;53592;51.402;6.054;2023-08-01T10:21:47;22.40;63.44
65989;HTU21D;53592;51.402;6.054;2023-08-01T10:24:14;22.24;63.15
65989;HTU21D;53592;51.402;6.054;2023-08-01T10:26:40;22.17;64.01
65989;HTU21D;53592;51.402;6.054;2023-08-01T10:29:05;22.16;64.26
65989;HTU21D;53592;51.402;6.054;2023-08-01T10:31:31;22.18;64.14
65989;HTU21D;53592;51.402;6.054;2023-08-01T10:34:12;22.14;64.06
65989;HTU21D;53592;51.402;6.054;2023-08-01T10:36:38;22.28;65.27
65989;HTU21D;53592;51.402;6.054;2023-08-01T10:39:03;22.56;65.06
65989;HTU21D;53592;51.402;6.054;2023-08-01T10:41:30;22.69;62.04
65989;HTU21D;53592;51.402;6.054;2023-08-01T10:44:13;22.64;61.52
65989;HTU21D;53592;51.402;6.054;2023-08-01T10:46:47;22.50;61.85
65989;HTU21D;53592;51.402;6.054;2023-08-01T10:49:13;22.48;62.59
65989;HTU21D;53592;51.402;6.054;2023-08-01T10:51:39;22.71;62.22
65989;HTU21D;53592;51.402;6.054;2023-08-01T10:54:04;23.05;60.79
65989;HTU21D;53592;51.402;6.054;2023-08-01T10:56:30;23.30;60.35
65989;HTU21D;53592;51.402;6.054;2023-08-01T10:58:58;23.47;59.33
65989;HTU21D;53592;51.402;6.054;2023-08-01T11:01:23;0.00;59.55
65989;HTU21D;53592;51.402;6.054;2023-08-01T11:03:51;23.40;59.78
65989;HTU21D;53592;51.402;6.054;2023-08-01T11:06:17;23.39;60.12
65989;HTU21D;53592;51.402;6.054;2023-08-01T11:08:42;23.15;61.35
65989;HTU21D;53592;51.402;6.054;2023-08-01T11:11:13;22.86;61.80
65989;HTU21D;53592;51.402;6.054;2023-08-01T11:13:39;22.63;62.57
65989;HTU21D;53592;51.402;6.054;2023-08-01T11:16:05;22.50;63.41
65989;HTU21D;53592;51.402;6.054;2023-08-01T11:18:44;22.46;63.38
65989;HTU21D;53592;51.402;6.054;2023-08-01T11:21:10;22.32;63.46
65989;HTU21D;53592;51.402;6.054;2023-08-01T11:23:35;22.27;63.92
65989;HTU21D;53592;51.402;6.054;2023-08-01T11:26:07;22.25;63.66
65989;HTU21D;53592;51.402;6.054;2023-08-01T11:28:34;22.22;64.07
65989;HTU21D;53592;51.402;6.054;2023-08-01T11:30:59;22.20;63.68
65989;HTU21D;53592;51.402;6.054;2023-08-01T11:33:25;22.16;64.04
65989;HTU21D;53592;51.402;6.054;2023-08-01T11:35:55;22.14;63.96
65989;HTU21D;53592;51.402;6.054;2023-08-01T11:38:26;22.11;63.98
65989;HTU21D;53592;51.402;6.054;2023-08-01T11:40:56;22.09;63.57
65989;HTU21D;53592;51.402;6.054;2023-08-01T11:43:22;22.04;63.71
65989;HTU21D;53592;51.402;6.054;2023-08-01T11:45:55;22.04;63.95
65989;HTU21D;53592;51.402;6.054;2023-08-01T11:48:22;22.07;64.01
65989;HTU21D;53592;51.402;6.054;2023-08-01T11:50:48;22.16;64.19
65989;HTU21D;53592;51.402;6.054;2023-08-01T11:53:21;22.34;64.78
65989;HTU21D;53592;51.402;6.054;2023-08-01T11:55:49;22.69;64.94
65989;HTU21D;53592;51.402;6.054;2023-08-01T11:58:15;23.13;63.40
65989;HTU21D;53592;51.402;6.054;2023-08-01T12:00:40;23.54;61.69
65989;HTU21D;53592;51.402;6.054;2023-08-01T12:03:09;23.91;60.69
65989;HTU21D;53592;51.402;6.054;2023-08-01T12:05:40;24.21;59.45
65989;HTU21D;53592;51.402;6.054;2023-08-01T12:08:11;24.54;58.29
65989;HTU21D;53592;51.402;6.054;2023-08-01T12:10:38;24.76;57.02
65989;HTU21D;53592;51.402;6.054;2023-08-01T12:13:04;24.97;55.47
65989;HTU21D;53592;51.402;6.054;2023-08-01T12:15:29;25.15;53.29
65989;HTU21D;53592;51.402;6.054;2023-08-01T12:17:56;25.30;53.56
65989;HTU21D;53592;51.402;6.054;2023-08-01T12:20:22;25.15;53.73
65989;HTU21D;53592;51.402;6.054;2023-08-01T12:22:47;24.95;54.68
65989;HTU21D;53592;51.402;6.054;2023-08-01T12:25:13;24.83;54.78
65989;HTU21D;53592;51.402;6.054;2023-08-01T12:27:38;24.46;54.69
65989;HTU21D;53592;51.402;6.054;2023-08-01T12:30:04;24.19;55.50
65989;HTU21D;53592;51.402;6.054;2023-08-01T12:32:30;23.87;55.90
65989;HTU21D;53592;51.402;6.054;2023-08-01T12:34:55;23.55;56.25
65989;HTU21D;53592;51.402;6.054;2023-08-01T12:37:21;23.35;57.87
65989;HTU21D;53592;51.402;6.054;2023-08-01T12:39:46;23.34;58.77
65989;HTU21D;53592;51.402;6.054;2023-08-01T12:42:12;23.43;58.88
65989;HTU21D;53592;51.402;6.054;2023-08-01T12:44:37;23.58;57.57
65989;HTU21D;53592;51.402;6.054;2023-08-01T12:47:03;23.81;57.76
65989;HTU21D;53592;51.402;6.054;2023-08-01T12:49:28;24.04;57.44
65989;HTU21D;53592;51.402;6.054;2023-08-01T12:51:54;24.32;56.09
65989;HTU21D;53592;51.402;6.054;2023-08-01T12:54:19;24.59;55.04
65989;HTU21D;53592;51.402;6.054;2023-08-01T12:56:45;24.75;53.98
65989;HTU21D;53592;51.402;6.054;2023-08-01T12:59:11;24.85;52.22
65989;HTU21D;53592;51.402;6.054;2023-08-01T13:01:36;24.85;50.85
65989;HTU21D;53592;51.402;6.054;2023-08-01T13:04:02;24.87;51.72
65989;HTU21D;53592;51.402;6.054;2023-08-01T13:06:27;24.82;51.78
65989;HTU21D;53592;51.402;6.054;2023-08-01T13:08:53;24.76;52.04
65989;HTU21D;53592;51.402;6.054;2023-08-01T13:11:18;24.57;52.11
65989;HTU21D;53592;51.402;6.054;2023-08-01T13:13:44;24.46;51.98
65989;HTU21D;53592;51.402;6.054;2023-08-01T13:16:10;24.45;52.45
65989;HTU21D;53592;51.402;6.054;2023-08-01T13:18:35;24.54;52.05
65989;HTU21D;53592;51.402;6.054;2023-08-01T13:21:02;24.70;52.80
65989;HTU21D;53592;51.402;6.054;2023-08-01T13:23:28;24.94;52.84
65989;HTU21D;53592;51.402;6.054;2023-08-01T13:25:54;25.06;51.27
65989;HTU21D;53592;51.402;6.054;2023-08-01T13:28:19;25.14;51.33
65989;HTU21D;53592;51.402;6.054;2023-08-01T13:30:45;25.18;50.66
65989;HTU21D;53592;51.402;6.054;2023-08-01T13:33:10;25.24;51.96
65989;HTU21D;53592;51.402;6.054;2023-08-01T13:35:36;25.35;51.82
65989;HTU21D;53592;51.402;6.054;2023-08-01T13:38:01;25.28;51.20
65989;HTU21D;53592;51.402;6.054;2023-08-01T13:40:28;25.24;51.48
65989;HTU21D;53592;51.402;6.054;2023-08-01T13:42:54;25.06;51.18
65989;HTU21D;53592;51.402;6.054;2023-08-01T13:45:19;24.76;51.73
65989;HTU21D;53592;51.402;6.054;2023-08-01T13:47:44;24.54;52.80
65989;HTU21D;53592;51.402;6.054;2023-08-01T13:50:10;24.48;53.52
65989;HTU21D;53592;51.402;6.054;2023-08-01T13:52:39;24.40;52.70
65989;HTU21D;53592;51.402;6.054;2023-08-01T13:55:04;24.28;51.45
65989;HTU21D;53592;51.402;6.054;2023-08-01T13:57:31;23.98;51.18
65989;HTU21D;53592;51.402;6.054;2023-08-01T13:59:57;23.67;50.33
65989;HTU21D;53592;51.402;6.054;2023-08-01T14:02:22;23.56;50.72
65989;HTU21D;53592;51.402;6.054;2023-08-01T14:04:51;23.45;49.02
65989;HTU21D;53592;51.402;6.054;2023-08-01T14:07:17;23.46;49.74
65989;HTU21D;53592;51.402;6.054;2023-08-01T14:09:43;23.39;49.49
65989;HTU21D;53592;51.402;6.054;2023-08-01T14:12:08;23.42;49.79
65989;HTU21D;53592;51.402;6.054;2023-08-01T14:14:34;23.47;50.08
65989;HTU21D;53592;51.402;6.054;2023-08-01T14:16:59;23.60;50.25
65989;HTU21D;53592;51.402;6.054;2023-08-01T14:19:25;23.70;49.72
65989;HTU21D;53592;51.402;6.054;2023-08-01T14:21:58;23.72;49.46
65989;HTU21D;53592;51.402;6.054;2023-08-01T14:24:24;23.81;49.02
65989;HTU21D;53592;51.402;6.054;2023-08-01T14:26:49;23.85;49.30
65989;HTU21D;53592;51.402;6.054;2023-08-01T14:29:17;24.01;49.59
65989;HTU21D;53592;51.402;6.054;2023-08-01T14:31:46;24.02;48.61
65989;HTU21D;53592;51.402;6.054;2023-08-01T14:34:11;23.96;49.09
65989;HTU21D;53592;51.402;6.054;2023-08-01T14:36:37;23.96;49.65
65989;HTU21D;53592;51.402;6.054;2023-08-01T14:39:02;23.99;49.33
65989;HTU21D;53592;51.402;6.054;2023-08-01T14:41:28;23.99;48.28
65989;HTU21D;53592;51.402;6.054;2023-08-01T14:43:55;24.02;48.79
65989;HTU21D;53592;51.402;6.054;2023-08-01T14:46:21;23.98;48.86
65989;HTU21D;53592;51.402;6.054;2023-08-01T14:48:46;24.01;49.03
65989;HTU21D;53592;51.402;6.054;2023-08-01T14:51:12;24.04;48.80
65989;HTU21D;53592;51.402;6.054;2023-08-01T14:53:37;24.05;49.09
65989;HTU21D;53592;51.402;6.054;2023-08-01T14:56:03;24.04;48.89
65989;HTU21D;53592;51.402;6.054;2023-08-01T14:58:31;23.97;48.96
65989;HTU21D;53592;51.402;6.054;2023-08-01T15:00:57;23.97;48.47
65989;HTU21D;53592;51.402;6.054;2023-08-01T15:03:22;23.95;49.06
65989;HTU21D;53592;51.402;6.054;2023-08-01T15:05:48;23.96;48.88
65989;HTU21D;53592;51.402;6.054;2023-08-01T15:08:13;23.92;48.69
65989;HTU21D;53592;51.402;6.054;2023-08-01T15:10:41;23.95;48.72
65989;HTU21D;53592;51.402;6.054;2023-08-01T15:13:06;23.92;48.92